Time;durP1;ratioP1;P1;durP2;ratioP2;P2;SDS_P1;SDS_P2;PMS_P1;PMS_P2;Temp;Humidity;BMP_temperature;BMP_pressure;BME280_temperature;BME280_humidity;BME280_pressure;Samples;Min_cycle;Max_cycle;Signal;HPM_P1;HPM_P2
2022/07/05 00:00:27;;;;;;;10.60;8.50;;;;;;;20.30;63.28;97326.97;110289;1247;71323;-69
2022/07/05 00:03:05;;;;;;;9.60;7.70;;;;;;;20.23;65.05;97321.31;110171;1247;67841;-69
2022/07/05 00:05:36;;;;;;;8.40;7.50;;;;;;;20.23;65.39;97320.95;110136;1247;69214;-67
2022/07/05 00:08:07;;;;;;;8.70;7.60;;;;;;;20.22;64.12;97318.50;110037;1248;60554;-70
2022/07/05 00:10:38;;;;;;;8.70;7.80;;;;;;;20.19;63.73;97321.23;110198;1248;60546;-68
2022/07/05 00:13:08;;;;;;;9.60;7.30;;;;;;;20.14;63.86;97322.02;110089;1248;72236;-70
2022/07/05 00:15:38;;;;;;;6.70;6.00;;;;;;;20.08;64.05;97321.31;110007;1250;68503;-70
2022/07/05 00:18:08;;;;;;;8.60;7.10;;;;;;;20.03;64.30;97320.35;110237;1247;69401;-69
2022/07/05 00:20:38;;;;;;;10.80;8.00;;;;;;;19.97;64.92;97320.35;110151;1247;60530;-71
2022/07/05 00:23:08;;;;;;;10.00;7.90;;;;;;;19.91;65.59;97325.08;110177;1247;60567;-69
2022/07/05 00:25:38;;;;;;;9.60;8.50;;;;;;;19.91;67.64;97323.39;109848;1250;71537;-71
2022/07/05 00:28:10;;;;;;;9.60;8.50;;;;;;;20.00;67.90;97321.27;110178;1247;68523;-69
2022/07/05 00:30:42;;;;;;;10.80;7.90;;;;;;;20.12;67.52;97318.45;110085;1247;69420;-69
2022/07/05 00:33:12;;;;;;;8.90;8.00;;;;;;;20.20;67.68;97318.94;109999;1249;60492;-69
2022/07/05 00:35:43;;;;;;;10.10;8.60;;;;;;;20.20;67.41;97315.95;109781;1250;60851;-70
2022/07/05 00:38:13;;;;;;;9.80;8.40;;;;;;;20.15;67.79;97320.63;109981;1250;72163;-69
2022/07/05 00:40:44;;;;;;;9.90;8.40;;;;;;;20.03;68.81;97320.39;110202;1247;67700;-71
2022/07/05 00:43:14;;;;;;;10.30;8.50;;;;;;;19.91;69.47;97325.11;110157;1249;69625;-70
2022/07/05 00:45:44;;;;;;;9.80;8.10;;;;;;;19.89;69.35;97323.73;110146;1247;60520;-70
2022/07/05 00:48:15;;;;;;;9.70;8.10;;;;;;;19.86;69.10;97322.41;109976;1250;61018;-69
2022/07/05 00:50:44;;;;;;;9.50;7.60;;;;;;;19.83;68.27;97320.71;110044;1248;71480;-69
2022/07/05 00:53:14;;;;;;;9.60;8.60;;;;;;;19.87;69.45;97322.15;110058;1247;67782;-69
2022/07/05 00:55:44;;;;;;;11.00;8.10;;;;;;;19.88;69.79;97319.75;110036;1248;68641;-68
2022/07/05 00:58:15;;;;;;;9.40;8.30;;;;;;;19.86;69.48;97311.70;109773;1250;60910;-69
2022/07/05 01:00:45;;;;;;;7.70;6.40;;;;;;;19.88;69.43;97300.70;110073;1247;60411;-70
2022/07/05 01:03:15;;;;;;;9.20;7.00;;;;;;;19.90;68.55;97301.75;110051;1248;72180;-70
2022/07/05 01:05:45;;;;;;;12.70;8.60;;;;;;;19.91;67.94;97301.11;110257;1247;68563;-70
2022/07/05 01:08:17;;;;;;;9.50;8.00;;;;;;;19.85;70.03;97306.31;109972;1248;69459;-69
2022/07/05 01:10:47;;;;;;;9.20;8.20;;;;;;;19.77;70.26;97301.20;110137;1247;60516;-70
2022/07/05 01:13:19;;;;;;;12.50;8.30;;;;;;;19.77;70.39;97303.67;110026;1248;60496;-69
2022/07/05 01:15:50;;;;;;;10.40;8.20;;;;;;;19.78;69.75;97303.25;110231;1247;73556;-70
2022/07/05 01:18:21;;;;;;;10.40;8.40;;;;;;;19.73;70.75;97308.91;109940;1247;67482;-70
2022/07/05 01:20:51;;;;;;;9.80;8.20;;;;;;;19.69;70.75;97312.14;110023;1248;69418;-68
2022/07/05 01:23:21;;;;;;;13.40;9.40;;;;;;;19.58;71.32;97306.48;109938;1247;60557;-71
2022/07/05 01:25:53;;;;;;;9.00;8.00;;;;;;;19.46;71.18;97304.16;110117;1248;60478;-69
2022/07/05 01:28:23;;;;;;;11.90;8.50;;;;;;;19.41;72.09;97304.00;110149;1248;71321;-71
2022/07/05 01:30:52;;;;;;;11.10;8.30;;;;;;;19.41;72.14;97303.30;110142;1247;67809;-69
2022/07/05 01:33:28;;;;;;;11.80;9.10;;;;;;;19.43;72.21;97303.06;110182;1250;69595;-70
2022/07/05 01:35:58;;;;;;;11.60;9.40;;;;;;;19.34;72.27;97303.16;109956;1248;60562;-69
2022/07/05 01:38:29;;;;;;;;;;;;;;;19.17;72.67;97305.21;109760;1247;60491;-71
2022/07/05 01:41:01;;;;;;;10.00;8.30;;;;;;;19.01;72.77;97308.20;110183;1247;71701;-70
2022/07/05 01:43:31;;;;;;;11.10;8.50;;;;;;;18.95;73.83;97312.41;110234;1247;67843;-71
2022/07/05 01:46:04;;;;;;;10.00;7.80;;;;;;;18.95;73.91;97309.70;109904;1250;69474;-71
2022/07/05 01:48:37;;;;;;;11.00;8.90;;;;;;;19.00;73.57;97309.90;110153;1247;60489;-71
2022/07/05 01:51:13;;;;;;;10.00;8.20;;;;;;;19.00;73.65;97306.69;110200;1247;60494;-69
2022/07/05 01:53:44;;;;;;;11.80;9.70;;;;;;;18.97;73.93;97308.38;110172;1248;72311;-70
2022/07/05 01:56:14;;;;;;;11.00;9.40;;;;;;;19.02;74.14;97308.94;109962;1247;68597;-68
2022/07/05 01:58:46;;;;;;;11.60;9.60;;;;;;;19.03;73.89;97303.66;110005;1247;69213;-68
2022/07/05 02:01:35;;;;;;;11.90;9.40;;;;;;;19.08;73.98;97306.11;109701;1247;60563;-70
2022/07/05 02:04:09;;;;;;;9.50;8.50;;;;;;;19.11;73.63;97306.23;110002;1248;60464;-67
2022/07/05 02:06:40;;;;;;;10.00;8.80;;;;;;;19.11;73.75;97308.83;110142;1247;71764;-69
2022/07/05 02:09:12;;;;;;;11.20;9.30;;;;;;;19.13;74.16;97307.92;110051;1249;67594;-68
2022/07/05 02:11:42;;;;;;;11.90;10.00;;;;;;;19.10;73.89;97311.45;110032;1247;69230;-69
2022/07/05 02:14:13;;;;;;;12.30;10.30;;;;;;;19.05;74.12;97311.28;109890;1249;60504;-70
2022/07/05 02:16:44;;;;;;;12.10;10.40;;;;;;;19.00;73.58;97310.39;110010;1250;60985;-66
2022/07/05 02:19:14;;;;;;;11.40;9.70;;;;;;;18.98;74.43;97311.11;110198;1247;72312;-68
2022/07/05 02:21:44;;;;;;;12.00;9.40;;;;;;;19.01;75.71;97313.61;109863;1250;67788;-68
2022/07/05 02:24:18;;;;;;;12.20;9.80;;;;;;;18.99;75.28;97318.77;110031;1247;68889;-70
2022/07/05 02:26:59;;;;;;;11.80;9.90;;;;;;;18.99;74.81;97319.00;110210;1247;60553;-69
2022/07/05 02:29:28;;;;;;;12.40;10.00;;;;;;;18.94;75.24;97319.52;109987;1247;60506;-71
2022/07/05 02:31:59;;;;;;;10.10;9.00;;;;;;;18.85;75.14;97319.57;109992;1247;72144;-69
2022/07/05 02:34:30;;;;;;;12.50;9.60;;;;;;;18.87;74.90;97319.08;110201;1247;67098;-70
2022/07/05 02:37:02;;;;;;;11.30;9.20;;;;;;;18.85;75.56;97318.40;110042;1247;69396;-69
2022/07/05 02:39:33;;;;;;;10.90;8.50;;;;;;;18.86;75.53;97319.54;109819;1250;60488;-68
2022/07/05 02:42:04;;;;;;;10.70;9.30;;;;;;;18.84;75.85;97319.51;109860;1250;60574;-68
2022/07/05 02:44:35;;;;;;;10.80;9.30;;;;;;;18.82;75.55;97325.05;110042;1248;71998;-70
2022/07/05 02:47:05;;;;;;;9.50;8.30;;;;;;;18.82;75.07;97326.30;110121;1248;67946;-70
2022/07/05 02:49:36;;;;;;;11.40;8.80;;;;;;;18.82;75.45;97328.21;109952;1248;68814;-69
2022/07/05 02:52:06;;;;;;;11.70;8.80;;;;;;;18.80;75.11;97330.73;110016;1248;60560;-70
2022/07/05 02:54:39;;;;;;;10.50;8.80;;;;;;;18.77;75.56;97333.19;110108;1247;60504;-69
2022/07/05 02:57:11;;;;;;;11.80;9.20;;;;;;;18.74;75.46;97336.23;109915;1247;71403;-69
2022/07/05 02:59:41;;;;;;;12.70;10.20;;;;;;;18.66;75.66;97337.54;110230;1247;66798;-70
2022/07/05 03:02:11;;;;;;;11.60;9.90;;;;;;;18.56;76.30;97338.98;110164;1247;69373;-69
2022/07/05 03:04:41;;;;;;;11.30;9.80;;;;;;;18.48;77.13;97341.35;110199;1247;60528;-70
2022/07/05 03:07:13;;;;;;;12.00;9.90;;;;;;;18.44;77.99;97346.40;110194;1247;60502;-68
2022/07/05 03:09:43;;;;;;;11.10;8.70;;;;;;;18.41;78.13;97344.41;109845;1250;72158;-69
2022/07/05 03:12:15;;;;;;;12.80;9.80;;;;;;;18.48;77.48;97348.23;109731;1247;67814;-69
2022/07/05 03:14:47;;;;;;;11.60;9.90;;;;;;;18.51;75.99;97349.52;109668;1247;69465;-69
2022/07/05 03:17:17;;;;;;;11.10;9.80;;;;;;;18.49;77.90;97349.95;109786;1247;60492;-70
2022/07/05 03:19:48;;;;;;;12.80;10.10;;;;;;;18.40;77.97;97348.80;109841;1248;60569;-70
2022/07/05 03:22:21;;;;;;;13.10;11.00;;;;;;;18.37;78.40;97349.84;109953;1250;71650;-69
2022/07/05 03:24:51;;;;;;;14.60;10.80;;;;;;;18.31;79.45;97344.94;110064;1250;68564;-70
2022/07/05 03:27:24;;;;;;;12.40;10.70;;;;;;;18.32;79.33;97345.55;110054;1248;69200;-67
2022/07/05 03:29:56;;;;;;;12.60;10.30;;;;;;;18.40;78.81;97349.30;109993;1249;60992;-70
2022/07/05 03:32:28;;;;;;;12.40;8.70;;;;;;;18.44;78.01;97350.27;109897;1250;60485;-70
2022/07/05 03:34:58;;;;;;;12.30;10.60;;;;;;;18.55;79.02;97348.34;109934;1248;72391;-73
2022/07/05 03:37:28;;;;;;;14.80;11.20;;;;;;;18.70;78.73;97342.02;110048;1248;67677;-69
2022/07/05 03:39:58;;;;;;;;;;;;;;;18.74;78.47;97340.67;109972;1250;69373;-71
2022/07/05 03:42:28;;;;;;;12.60;10.50;;;;;;;18.78;78.85;97339.73;110197;1247;60532;-69
2022/07/05 03:44:57;;;;;;;13.60;10.70;;;;;;;18.82;78.65;97337.22;110042;1249;60859;-69
2022/07/05 03:47:28;;;;;;;12.90;10.10;;;;;;;18.83;77.31;97339.96;109749;1248;72427;-67
2022/07/05 03:49:59;;;;;;;10.60;9.00;;;;;;;18.82;76.24;97332.08;109999;1250;67657;-69
2022/07/05 03:52:28;;;;;;;15.50;11.30;;;;;;;18.80;76.61;97337.45;109966;1250;68677;-69
2022/07/05 03:54:59;;;;;;;12.60;10.80;;;;;;;18.75;77.31;97336.60;109830;1250;60572;-70
2022/07/05 03:57:29;;;;;;;13.60;11.20;;;;;;;18.63;77.87;97340.81;109946;1250;60590;-68
2022/07/05 04:00:00;;;;;;;12.50;10.90;;;;;;;18.56;77.81;97347.41;109959;1250;72336;-69
2022/07/05 04:02:41;;;;;;;13.00;10.70;;;;;;;18.57;77.64;97348.14;109863;1250;68588;-72
2022/07/05 04:05:12;;;;;;;14.50;10.60;;;;;;;18.60;78.09;97348.88;109826;1250;69321;-71
2022/07/05 04:07:49;;;;;;;;;;;;;;;18.69;77.16;97347.09;109882;1250;60537;-71
2022/07/05 04:10:22;;;;;;;16.20;10.90;;;;;;;18.77;77.58;97350.65;109919;1250;60525;-71
2022/07/05 04:12:52;;;;;;;14.40;11.50;;;;;;;18.81;77.90;97353.86;110060;1250;71654;-72
2022/07/05 04:15:23;;;;;;;13.20;10.80;;;;;;;18.85;77.78;97351.04;109976;1249;67622;-69
2022/07/05 04:17:55;;;;;;;12.00;10.60;;;;;;;18.90;78.04;97353.46;109998;1250;69566;-70
2022/07/05 04:20:26;;;;;;;12.70;9.90;;;;;;;18.98;77.89;97352.94;109851;1250;60497;-70
2022/07/05 04:22:56;;;;;;;11.20;9.50;;;;;;;19.10;77.10;97350.79;109847;1250;60527;-71
2022/07/05 04:25:26;;;;;;;11.60;9.20;;;;;;;19.23;76.86;97354.81;109798;1250;71621;-69
2022/07/05 04:28:07;;;;;;;14.50;10.50;;;;;;;19.36;77.19;97355.73;109928;1249;68619;-69
2022/07/05 04:30:37;;;;;;;11.60;9.90;;;;;;;19.47;76.84;97355.41;110029;1249;68779;-70
2022/07/05 04:33:08;;;;;;;12.20;10.60;;;;;;;19.55;76.88;97357.02;109926;1250;60420;-69
2022/07/05 04:35:38;;;;;;;12.00;10.60;;;;;;;19.68;76.46;97359.88;109757;1250;60552;-70
2022/07/05 04:38:08;;;;;;;13.80;11.20;;;;;;;19.84;76.09;97360.88;109971;1250;72186;-68
2022/07/05 04:40:40;;;;;;;12.40;10.50;;;;;;;20.04;76.28;97365.59;109889;1250;67088;-70
2022/07/05 04:43:10;;;;;;;12.80;10.50;;;;;;;20.18;76.17;97363.40;109979;1250;69387;-70
2022/07/05 04:45:39;;;;;;;11.00;9.80;;;;;;;20.35;76.02;97363.94;109578;1250;60676;-70
2022/07/05 04:48:09;;;;;;;;;;;;;;;20.54;74.83;97367.36;109920;1250;60504;-69
2022/07/05 04:50:39;;;;;;;11.60;9.60;;;;;;;20.70;74.04;97366.55;109917;1250;71592;-69
2022/07/05 04:53:10;;;;;;;12.20;10.90;;;;;;;20.83;73.29;97368.60;109739;1250;67791;-72
2022/07/05 04:55:39;;;;;;;14.90;12.00;;;;;;;20.91;73.43;97368.07;109706;1253;69451;-69
2022/07/05 04:58:08;;;;;;;16.40;12.50;;;;;;;20.98;72.95;97368.64;110027;1250;60587;-70
2022/07/05 05:00:37;;;;;;;;;;;;;;;21.06;72.94;97370.47;110153;1249;60559;-70
2022/07/05 05:03:07;;;;;;;16.50;12.10;;;;;;;21.18;72.67;97374.07;110091;1249;71222;-71
2022/07/05 05:05:36;;;;;;;14.30;10.70;;;;;;;21.30;72.32;97374.34;110114;1250;67856;-74
2022/07/05 05:08:05;;;;;;;11.60;10.40;;;;;;;21.39;72.06;97375.21;109921;1250;68479;-74
2022/07/05 05:10:34;;;;;;;11.30;10.10;;;;;;;21.54;71.64;97378.39;110135;1249;60567;-75
2022/07/05 05:13:04;;;;;;;13.40;11.00;;;;;;;21.80;71.65;97381.55;109921;1250;60522;-74
2022/07/05 05:15:33;;;;;;;11.10;9.20;;;;;;;22.06;69.95;97377.53;109899;1250;72321;-71
2022/07/05 05:18:02;;;;;;;;;;;;;;;22.43;70.66;97375.03;110093;1249;68624;-76
2022/07/05 05:20:32;;;;;;;11.20;8.90;;;;;;;22.83;69.87;97371.33;110154;1249;69299;-73
2022/07/05 05:23:08;;;;;;;9.80;8.80;;;;;;;23.16;65.90;97372.28;110069;1250;60584;-70
2022/07/05 05:25:37;;;;;;;13.20;10.80;;;;;;;23.44;65.84;97374.23;110103;1250;60564;-72
2022/07/05 05:28:06;;;;;;;;;;;;;;;23.65;63.31;97379.89;110176;1249;72576;-73
2022/07/05 05:30:35;;;;;;;11.50;10.30;;;;;;;23.82;62.64;97371.12;110018;1249;67660;-74
2022/07/05 05:33:04;;;;;;;10.60;9.50;;;;;;;24.02;61.57;97371.27;110168;1248;68453;-73
2022/07/05 05:35:33;;;;;;;10.50;9.30;;;;;;;24.21;61.09;97365.85;110032;1248;60925;-75
2022/07/05 05:38:03;;;;;;;;;;;;;;;24.39;61.00;97364.50;109843;1250;60402;-74
2022/07/05 05:40:37;;;;;;;10.00;8.90;;;;;;;24.59;61.02;97361.01;109966;1250;71602;-76
2022/07/05 05:43:07;;;;;;;10.90;9.70;;;;;;;24.71;60.05;97365.17;110026;1249;68735;-76
2022/07/05 05:45:36;;;;;;;10.70;8.90;;;;;;;24.79;59.95;97365.17;110114;1249;69503;-74
2022/07/05 05:48:06;;;;;;;10.70;9.60;;;;;;;24.92;60.26;97363.96;110047;1249;60508;-73
2022/07/05 05:50:36;;;;;;;;;;;;;;;25.03;59.50;97363.36;110087;1250;60516;-72
2022/07/05 05:53:05;;;;;;;10.80;9.70;;;;;;;25.15;59.32;97360.89;110175;1247;71608;-74
2022/07/05 05:55:34;;;;;;;11.50;10.00;;;;;;;25.28;59.30;97360.77;109925;1249;67934;-73
2022/07/05 05:58:14;;;;;;;11.00;9.40;;;;;;;25.41;58.72;97359.98;110153;1247;68673;-70
2022/07/05 06:00:48;;;;;;;14.60;9.80;;;;;;;25.53;58.90;97360.30;110167;1246;60486;-70
2022/07/05 06:03:23;;;;;;;10.40;9.10;;;;;;;25.65;58.54;97361.23;110238;1247;60487;-72
2022/07/05 06:05:53;;;;;;;9.80;8.80;;;;;;;25.79;57.98;97357.11;110190;1247;72420;-71
2022/07/05 06:08:23;;;;;;;10.20;9.20;;;;;;;25.88;57.61;97358.58;110038;1247;68095;-72
2022/07/05 06:10:52;;;;;;;10.10;8.50;;;;;;;25.97;57.27;97359.52;110239;1247;69261;-70
2022/07/05 06:13:29;;;;;;;10.20;9.10;;;;;;;26.03;56.87;97355.79;110034;1247;60557;-70
2022/07/05 06:15:59;;;;;;;10.60;9.30;;;;;;;26.09;57.35;97353.74;110183;1247;60491;-71
2022/07/05 06:18:28;;;;;;;;;;;;;;;26.23;56.56;97356.65;110200;1247;71406;-72
2022/07/05 06:20:57;;;;;;;9.70;8.10;;;;;;;26.36;55.81;97352.98;110203;1247;67853;-72
2022/07/05 06:23:26;;;;;;;10.30;9.20;;;;;;;26.60;56.17;97350.95;110145;1247;68643;-73
2022/07/05 06:25:55;;;;;;;;;;;;;;;26.84;54.73;97349.20;110185;1247;60548;-69
2022/07/05 06:28:24;;;;;;;10.80;9.50;;;;;;;27.08;53.37;97347.80;110169;1247;60535;-72
2022/07/05 06:30:53;;;;;;;10.80;9.70;;;;;;;27.37;53.20;97349.82;110238;1247;72382;-71
2022/07/05 06:33:22;;;;;;;;;;;;;;;27.70;52.32;97351.71;110205;1247;68733;-74
2022/07/05 06:35:51;;;;;;;11.50;10.00;;;;;;;28.11;51.06;97351.30;110186;1247;68508;-72
2022/07/05 06:38:21;;;;;;;10.30;9.20;;;;;;;28.48;50.08;97357.46;110267;1247;60487;-73
2022/07/05 06:40:50;;;;;;;;;;;;;;;28.71;49.16;97353.41;110206;1247;60472;-73
2022/07/05 06:43:19;;;;;;;10.50;8.10;;;;;;;28.86;48.26;97355.27;110166;1247;72367;-73
2022/07/05 06:45:55;;;;;;;10.30;8.80;;;;;;;29.24;48.15;97355.50;110023;1247;68648;-72
2022/07/05 06:48:25;;;;;;;11.40;8.60;;;;;;;29.71;47.14;97353.08;109897;1250;70027;-71
2022/07/05 06:50:54;;;;;;;10.60;8.00;;;;;;;30.01;45.59;97353.55;110001;1250;60517;-70
2022/07/05 06:53:23;;;;;;;10.80;8.10;;;;;;;30.38;45.76;97353.16;109857;1250;60501;-72
2022/07/05 06:55:52;;;;;;;10.50;8.80;;;;;;;30.66;44.47;97354.30;109980;1250;71713;-73
2022/07/05 06:58:24;;;;;;;11.40;8.40;;;;;;;30.57;43.73;97352.14;109863;1250;67988;-73
2022/07/05 07:00:53;;;;;;;9.60;8.40;;;;;;;30.82;44.29;97350.79;109880;1250;69523;-72
2022/07/05 07:03:42;;;;;;;8.40;7.50;;;;;;;31.04;42.30;97349.20;110013;1248;60467;-71
2022/07/05 07:06:31;;;;;;;9.80;8.30;;;;;;;31.25;41.66;97347.83;109715;1250;60626;-72
2022/07/05 07:09:18;;;;;;;11.50;9.10;;;;;;;31.15;41.35;97339.65;110063;1250;73877;-72
2022/07/05 07:11:48;;;;;;;9.00;7.20;;;;;;;31.21;40.96;97335.71;110166;1249;67886;-70
2022/07/05 07:14:18;;;;;;;8.70;7.90;;;;;;;30.98;40.78;97331.06;109934;1249;68752;-72
2022/07/05 07:16:47;;;;;;;8.30;7.50;;;;;;;30.93;41.03;97330.66;110171;1250;60444;-73
2022/07/05 07:19:16;;;;;;;8.50;7.70;;;;;;;31.07;40.96;97330.65;109855;1250;60559;-72
2022/07/05 07:21:45;;;;;;;9.40;8.60;;;;;;;31.21;40.56;97329.73;109894;1250;72380;-73
2022/07/05 07:24:14;;;;;;;8.90;8.10;;;;;;;31.18;40.83;97329.77;110102;1250;68580;-72
2022/07/05 07:29:33;;;;;;;9.20;8.30;;;;;;;31.43;39.83;97326.30;109731;1249;60510;-73
2022/07/05 07:32:03;;;;;;;9.50;8.50;;;;;;;31.47;39.67;97328.95;109867;1250;60587;-74
2022/07/05 07:34:33;;;;;;;9.50;8.60;;;;;;;31.57;39.85;97325.59;109893;1249;72561;-74
2022/07/05 07:37:03;;;;;;;9.40;8.60;;;;;;;31.81;39.30;97325.20;110006;1250;68636;-73
2022/07/05 07:39:32;;;;;;;10.20;7.90;;;;;;;31.91;38.69;97325.12;109907;1250;70630;-73
2022/07/05 07:42:02;;;;;;;9.10;8.20;;;;;;;31.90;38.82;97327.98;109980;1250;60510;-72
2022/07/05 07:44:30;;;;;;;10.20;8.90;;;;;;;32.49;38.56;97326.61;109900;1250;60561;-74
2022/07/05 07:46:59;;;;;;;8.90;8.00;;;;;;;32.51;37.69;97323.94;109970;1250;72295;-74
2022/07/05 07:49:28;;;;;;;8.80;7.90;;;;;;;32.36;37.97;97324.45;109754;1251;67967;-73
2022/07/05 07:51:57;;;;;;;9.50;8.50;;;;;;;32.71;37.75;97325.13;109950;1250;68596;-73
2022/07/05 07:54:27;;;;;;;9.10;7.90;;;;;;;32.71;37.45;97324.89;109899;1250;60554;-74
2022/07/05 07:56:56;;;;;;;8.80;7.40;;;;;;;33.08;37.08;97324.04;109881;1250;60485;-72
2022/07/05 07:59:25;;;;;;;;;;;;;;;33.31;36.35;97321.79;109917;1250;71607;-72
2022/07/05 08:01:53;;;;;;;7.70;6.90;;;;;;;33.87;36.88;97327.54;109907;1249;68229;-72
2022/07/05 08:04:23;;;;;;;8.50;7.60;;;;;;;34.35;34.74;97324.24;109896;1249;69254;-72
2022/07/05 08:06:52;;;;;;;9.20;8.20;;;;;;;34.34;34.41;97321.80;109914;1250;60509;-74
2022/07/05 08:09:21;;;;;;;8.30;7.60;;;;;;;34.29;34.68;97323.73;109835;1250;60511;-72
2022/07/05 08:11:50;;;;;;;7.30;6.60;;;;;;;34.59;33.99;97325.01;109891;1250;71247;-73
2022/07/05 08:14:18;;;;;;;10.20;8.60;;;;;;;34.89;33.44;97320.44;109920;1250;67834;-77
2022/07/05 08:16:49;;;;;;;8.80;7.50;;;;;;;34.87;32.79;97322.73;110189;1249;69381;-76
2022/07/05 08:22:08;;;;;;;8.30;7.30;;;;;;;34.67;33.39;97316.48;110039;1250;60561;-77
2022/07/05 08:24:41;;;;;;;8.30;7.40;;;;;;;34.45;32.88;97310.13;109941;1250;73095;-76
2022/07/05 08:27:11;;;;;;;7.90;7.20;;;;;;;34.75;32.44;97309.88;109812;1251;69234;-75
2022/07/05 08:29:41;;;;;;;9.30;7.80;;;;;;;35.10;32.42;97302.97;110144;1250;68870;-76
2022/07/05 08:32:10;;;;;;;8.20;7.30;;;;;;;35.48;31.10;97298.08;110137;1248;60491;-72
2022/07/05 08:34:39;;;;;;;10.60;8.10;;;;;;;35.58;31.03;97293.34;109877;1250;60898;-72
2022/07/05 08:37:09;;;;;;;8.60;7.70;;;;;;;35.34;31.26;97289.34;110033;1250;72626;-74
2022/07/05 08:39:45;;;;;;;8.60;7.80;;;;;;;35.04;31.65;97288.97;109899;1250;67942;-74
2022/07/05 08:42:21;;;;;;;7.80;6.80;;;;;;;35.27;31.65;97286.41;110038;1250;68715;-73
2022/07/05 08:44:55;;;;;;;9.20;7.20;;;;;;;35.52;31.26;97285.04;109885;1250;60536;-72
2022/07/05 08:47:26;;;;;;;7.60;6.80;;;;;;;35.78;31.06;97278.39;110006;1249;60558;-74
2022/07/05 08:49:58;;;;;;;8.50;7.60;;;;;;;35.80;30.62;97274.59;110173;1249;72358;-72
2022/07/05 08:52:30;;;;;;;8.70;7.90;;;;;;;35.64;30.27;97271.48;110006;1250;66802;-75
2022/07/05 08:54:59;;;;;;;7.70;6.30;;;;;;;35.61;30.89;97275.17;109961;1248;69411;-72
2022/07/05 08:57:28;;;;;;;7.50;6.70;;;;;;;35.94;29.62;97270.84;110015;1249;60508;-72
2022/07/05 08:59:56;;;;;;;7.70;6.90;;;;;;;36.10;29.52;97267.54;110205;1247;60558;-74
2022/07/05 09:02:28;;;;;;;7.80;6.90;;;;;;;36.12;29.00;97269.75;110183;1247;71743;-73
2022/07/05 09:04:58;;;;;;;7.30;6.60;;;;;;;36.63;29.39;97269.98;110210;1245;68105;-73
2022/07/05 09:07:32;;;;;;;7.20;6.50;;;;;;;36.78;28.46;97268.95;110193;1247;69433;-74
2022/07/05 09:10:04;;;;;;;12.00;7.60;;;;;;;36.66;28.08;97265.33;110207;1247;60557;-75
2022/07/05 09:12:34;;;;;;;7.30;6.40;;;;;;;36.39;27.64;97260.42;110002;1250;60462;-75
2022/07/05 09:15:05;;;;;;;7.40;5.90;;;;;;;36.17;28.05;97258.63;110097;1247;72903;-76
2022/07/05 09:17:42;;;;;;;7.40;6.70;;;;;;;36.40;27.65;97258.57;110235;1247;68813;-77
2022/07/05 09:20:17;;;;;;;6.50;5.80;;;;;;;36.54;26.32;97255.33;110239;1249;69893;-75
2022/07/05 09:22:52;;;;;;;7.00;6.20;;;;;;;36.43;26.87;97253.92;110230;1247;60572;-75
2022/07/05 09:25:34;;;;;;;6.70;4.90;;;;;;;36.43;24.68;97247.18;110285;1248;60613;-75
2022/07/05 09:28:06;;;;;;;7.00;6.20;;;;;;;36.61;24.16;97243.92;110226;1247;72465;-77
2022/07/05 09:30:39;;;;;;;6.20;5.20;;;;;;;36.65;24.75;97245.40;109949;1248;67693;-76
2022/07/05 09:33:15;;;;;;;6.40;5.50;;;;;;;36.53;25.74;97240.40;110200;1249;68628;-77
2022/07/05 09:35:57;;;;;;;6.70;5.30;;;;;;;36.65;23.57;97242.23;109878;1250;60563;-77
2022/07/05 09:38:29;;;;;;;5.30;4.70;;;;;;;36.72;22.40;97240.77;110191;1247;60489;-76
2022/07/05 09:41:01;;;;;;;7.30;5.30;;;;;;;37.17;21.81;97236.17;109947;1247;71542;-76
2022/07/05 09:43:30;;;;;;;6.80;5.50;;;;;;;37.35;22.24;97233.55;109901;1250;67883;-74
2022/07/05 09:46:02;;;;;;;6.20;5.50;;;;;;;37.40;23.10;97228.73;110238;1247;68453;-76
2022/07/05 09:48:33;;;;;;;5.90;5.30;;;;;;;37.37;22.39;97229.99;110267;1247;60488;-77
2022/07/05 09:51:13;;;;;;;6.10;5.50;;;;;;;36.82;22.12;97226.11;110208;1250;60510;-75
2022/07/05 09:54:04;;;;;;;6.30;5.50;;;;;;;37.25;22.95;97226.08;110248;1246;71568;-76
2022/07/05 09:56:48;;;;;;;6.40;5.70;;;;;;;37.59;21.54;97226.61;110334;1247;67799;-75
2022/07/05 09:59:20;;;;;;;5.50;4.70;;;;;;;37.52;23.26;97222.48;110268;1247;68744;-74
2022/07/05 10:01:51;;;;;;;6.50;5.40;;;;;;;37.57;22.74;97218.08;110271;1247;60879;-74
2022/07/05 10:04:25;;;;;;;7.10;5.90;;;;;;;37.71;22.75;97217.35;110244;1247;60472;-74
2022/07/05 10:06:54;;;;;;;8.40;5.70;;;;;;;37.69;23.31;97219.66;110243;1247;72162;-74
2022/07/05 10:09:26;;;;;;;8.50;6.20;;;;;;;37.46;23.50;97217.63;110241;1247;68809;-76
2022/07/05 10:11:55;;;;;;;5.80;5.20;;;;;;;37.52;23.08;97212.45;110216;1247;69363;-76
2022/07/05 10:14:25;;;;;;;6.70;5.80;;;;;;;37.41;21.69;97211.85;110189;1248;60488;-76
2022/07/05 10:17:01;;;;;;;6.40;5.50;;;;;;;37.00;21.25;97204.02;110298;1247;60482;-75
2022/07/05 10:19:41;;;;;;;6.70;5.30;;;;;;;36.56;21.60;97202.29;110343;1248;72033;-77
2022/07/05 10:22:12;;;;;;;6.30;5.70;;;;;;;36.09;21.82;97203.11;109983;1247;67678;-75
2022/07/05 10:24:48;;;;;;;5.40;4.80;;;;;;;35.65;22.80;97202.16;110281;1247;69279;-76
2022/07/05 10:27:22;;;;;;;5.50;4.70;;;;;;;35.67;22.55;97201.71;110279;1247;60565;-76
2022/07/05 10:29:52;;;;;;;6.80;5.90;;;;;;;35.66;22.50;97193.47;110390;1247;60540;-74
2022/07/05 10:32:24;;;;;;;6.20;5.60;;;;;;;35.79;22.82;97198.09;110241;1248;71411;-74
2022/07/05 10:34:54;;;;;;;7.40;6.70;;;;;;;35.78;23.14;97195.59;110078;1250;68821;-75
2022/07/05 10:37:28;;;;;;;7.40;5.80;;;;;;;35.71;23.21;97188.71;110222;1247;69262;-76
2022/07/05 10:40:00;;;;;;;6.60;6.00;;;;;;;35.71;24.05;97190.34;110346;1247;60482;-75
2022/07/05 10:42:39;;;;;;;8.00;5.20;;;;;;;35.75;23.51;97186.09;110263;1247;60550;-75
2022/07/05 10:45:32;;;;;;;5.80;5.30;;;;;;;35.89;23.53;97181.60;110203;1248;72356;-75
2022/07/05 10:48:14;;;;;;;6.40;5.80;;;;;;;36.23;24.76;97178.61;109980;1247;67783;-76
2022/07/05 10:50:59;;;;;;;6.50;5.70;;;;;;;36.32;23.21;97177.73;109957;1247;69701;-75
2022/07/05 10:53:36;;;;;;;5.90;4.90;;;;;;;36.18;22.57;97172.98;109948;1250;60955;-75
2022/07/05 10:56:05;;;;;;;6.30;5.70;;;;;;;36.11;22.91;97177.94;110071;1247;60494;-75
2022/07/05 10:58:38;;;;;;;6.40;5.80;;;;;;;36.10;23.23;97175.48;110214;1250;70605;-74
2022/07/05 11:01:20;;;;;;;5.90;5.40;;;;;;;35.97;22.98;97171.55;110270;1247;68194;-76
2022/07/05 11:04:01;;;;;;;5.50;4.80;;;;;;;36.17;24.22;97161.39;110272;1247;69485;-75
2022/07/05 11:06:38;;;;;;;7.10;5.20;;;;;;;36.49;23.02;97158.31;110268;1247;60492;-76
2022/07/05 11:09:11;;;;;;;6.60;5.50;;;;;;;36.53;22.16;97159.25;110300;1248;60510;-76
2022/07/05 11:11:47;;;;;;;6.80;5.90;;;;;;;36.80;22.85;97156.95;110239;1248;71736;-76
2022/07/05 11:14:38;;;;;;;6.90;6.20;;;;;;;36.81;23.26;97150.80;110301;1247;68518;-77
2022/07/05 11:17:11;;;;;;;6.80;6.10;;;;;;;36.40;23.02;97147.75;110193;1247;68888;-77
2022/07/05 11:20:08;;;;;;;6.00;4.50;;;;;;;35.79;23.57;97143.87;110246;1247;60561;-77
2022/07/05 11:23:07;;;;;;;6.50;4.40;;;;;;;36.17;23.01;97136.05;110198;1247;60554;-78
2022/07/05 11:25:41;;;;;;;;;;;;;;;36.13;22.58;97135.67;110281;1247;72185;-75
2022/07/05 11:28:17;;;;;;;6.00;5.40;;;;;;;36.50;23.05;97128.04;110290;1247;68031;-76
2022/07/05 11:30:56;;;;;;;5.30;4.70;;;;;;;36.31;23.39;97131.42;110257;1247;68638;-77
2022/07/05 11:33:44;;;;;;;6.80;5.20;;;;;;;36.35;22.89;97132.43;110024;1250;60500;-76
2022/07/05 11:36:27;;;;;;;6.90;5.60;;;;;;;36.66;23.12;97125.29;110307;1247;60459;-74
2022/07/05 11:39:15;;;;;;;7.70;6.10;;;;;;;36.78;23.28;97128.60;110236;1247;72392;-76
2022/07/05 11:41:47;;;;;;;6.50;5.50;;;;;;;36.47;22.83;97121.34;110323;1247;68565;-76
2022/07/05 11:44:16;;;;;;;8.80;6.20;;;;;;;36.57;23.17;97119.16;110234;1247;68776;-77
2022/07/05 11:46:50;;;;;;;6.10;5.50;;;;;;;36.30;22.95;97125.56;110243;1247;60542;-76
2022/07/05 11:49:21;;;;;;;6.90;5.80;;;;;;;36.04;22.89;97118.34;110203;1247;60547;-74
2022/07/05 11:51:56;;;;;;;5.20;4.40;;;;;;;36.08;22.21;97114.57;110041;1248;72625;-76